createdAt,value
2023-05-12T00:00:38.781Z,0.00
2023-05-12T00:01:38.910Z,0.00
2023-05-12T00:02:38.900Z,0.00
2023-05-12T00:03:38.850Z,0.00
2023-05-12T00:04:38.851Z,0.00
2023-05-12T00:05:38.726Z,0.00
2023-05-12T00:06:38.800Z,0.00
2023-05-12T00:07:38.916Z,0.00
2023-05-12T00:08:38.834Z,0.00
2023-05-12T00:09:39.065Z,0.00
2023-05-12T00:10:38.691Z,0.00
2023-05-12T00:11:38.719Z,0.00
2023-05-12T00:12:38.671Z,0.00
2023-05-12T00:13:38.819Z,0.00
2023-05-12T00:14:38.790Z,0.00
2023-05-12T00:15:38.741Z,0.00
2023-05-12T00:16:38.659Z,0.00
2023-05-12T00:17:40.365Z,0.00
2023-05-12T00:18:38.772Z,0.00
2023-05-12T00:19:38.827Z,0.00
2023-05-12T00:20:38.707Z,0.00
2023-05-12T00:21:38.686Z,0.00
2023-05-12T00:22:39.650Z,0.00
2023-05-12T00:23:39.375Z,0.00
2023-05-12T00:24:38.659Z,0.00
2023-05-12T00:25:38.882Z,0.00
2023-05-12T00:26:38.667Z,0.00
2023-05-12T00:27:38.570Z,0.00
2023-05-12T00:28:38.853Z,0.00
2023-05-12T00:29:39.498Z,0.00
2023-05-12T00:30:38.703Z,0.00
2023-05-12T00:31:38.545Z,0.00
2023-05-12T00:32:38.576Z,0.00
2023-05-12T00:33:38.552Z,0.00
2023-05-12T00:34:38.989Z,0.00
2023-05-12T00:35:38.485Z,0.00
2023-05-12T00:36:38.631Z,0.00
2023-05-12T00:37:39.498Z,0.00
2023-05-12T00:38:38.498Z,0.00
2023-05-12T00:39:38.471Z,0.00
2023-05-12T00:40:38.524Z,0.00
2023-05-12T00:41:38.697Z,0.00
2023-05-12T00:42:38.511Z,0.00
2023-05-12T00:43:38.667Z,0.00
2023-05-12T00:44:38.495Z,0.00
2023-05-12T00:45:38.450Z,0.00
2023-05-12T00:46:38.682Z,0.00
2023-05-12T00:47:38.458Z,0.00
2023-05-12T00:48:38.365Z,0.00
2023-05-12T00:49:38.287Z,0.00
2023-05-12T00:50:38.277Z,0.00
2023-05-12T00:51:38.272Z,0.00
2023-05-12T00:52:38.456Z,0.00
2023-05-12T00:53:48.546Z,0.00
2023-05-12T00:54:38.328Z,0.00
2023-05-12T00:55:39.228Z,0.00
2023-05-12T00:56:38.187Z,0.00
2023-05-12T00:57:38.219Z,0.00
2023-05-12T00:58:38.226Z,0.00
2023-05-12T00:59:39.059Z,0.00
2023-05-12T01:00:38.295Z,0.00
2023-05-12T01:01:38.506Z,0.00
2023-05-12T01:02:38.255Z,0.00
2023-05-12T01:03:38.251Z,0.00
2023-05-12T01:04:39.246Z,0.00
2023-05-12T01:05:38.118Z,0.00
2023-05-12T01:06:38.066Z,0.00
2023-05-12T01:07:38.036Z,0.00
2023-05-12T01:08:38.077Z,0.00
2023-05-12T01:09:38.063Z,0.00
2023-05-12T01:10:38.033Z,0.00
2023-05-12T01:11:38.025Z,0.00
2023-05-12T01:12:37.981Z,0.00
2023-05-12T01:13:37.990Z,0.00
2023-05-12T01:14:38.041Z,0.00
2023-05-12T01:15:38.004Z,0.00
2023-05-12T01:16:37.935Z,0.00
2023-05-12T01:17:38.101Z,0.00
2023-05-12T01:18:37.924Z,0.00
2023-05-12T01:19:37.956Z,0.00
2023-05-12T01:20:37.913Z,0.00
2023-05-12T01:21:37.966Z,0.00
2023-05-12T01:22:37.876Z,0.00
2023-05-12T01:23:37.950Z,0.00
2023-05-12T01:24:37.980Z,0.00
2023-05-12T01:25:37.953Z,0.00
2023-05-12T01:26:37.866Z,0.00
2023-05-12T01:27:39.560Z,0.00
2023-05-12T01:28:38.112Z,0.00
2023-05-12T01:29:37.827Z,0.00
2023-05-12T01:30:38.621Z,0.00
2023-05-12T01:31:38.037Z,0.00
2023-05-12T01:32:37.808Z,0.00
2023-05-12T01:33:37.805Z,0.00
2023-05-12T01:34:38.341Z,0.00
2023-05-12T01:35:37.738Z,0.00
2023-05-12T01:36:37.767Z,0.00
2023-05-12T01:37:37.812Z,0.00
2023-05-12T01:38:38.468Z,0.00
2023-05-12T01:39:37.994Z,0.00
2023-05-12T01:40:37.884Z,0.00
2023-05-12T01:41:37.897Z,0.00
2023-05-12T01:42:38.041Z,0.00
2023-05-12T01:43:37.970Z,0.00
2023-05-12T01:44:38.013Z,0.00
2023-05-12T01:45:37.756Z,0.00
2023-05-12T01:46:37.916Z,0.00
2023-05-12T01:47:37.872Z,0.00
2023-05-12T01:48:37.838Z,0.00
2023-05-12T01:49:38.070Z,0.00
2023-05-12T01:50:37.783Z,0.00
2023-05-12T01:51:37.886Z,0.00
2023-05-12T01:52:37.774Z,0.00
2023-05-12T01:53:37.820Z,0.00
2023-05-12T01:54:37.672Z,0.00
2023-05-12T01:55:37.632Z,0.00
2023-05-12T01:56:38.482Z,0.00
2023-05-12T01:57:38.511Z,0.00
2023-05-12T01:58:37.629Z,0.00
2023-05-12T01:59:37.531Z,0.00
2023-05-12T02:00:37.844Z,0.00
2023-05-12T02:01:39.035Z,0.00
2023-05-12T02:02:37.832Z,0.00
2023-05-12T02:03:37.778Z,0.00
2023-05-12T02:04:37.505Z,0.00
2023-05-12T02:05:37.918Z,0.00
2023-05-12T02:06:38.157Z,0.00
2023-05-12T02:07:37.667Z,0.00
2023-05-12T02:08:37.516Z,0.00
2023-05-12T02:09:37.977Z,0.00
2023-05-12T02:10:37.575Z,0.00
2023-05-12T02:11:37.842Z,0.00
2023-05-12T02:12:37.481Z,0.00
2023-05-12T02:13:37.473Z,0.00
2023-05-12T02:14:38.349Z,0.00
2023-05-12T02:15:38.505Z,0.00
2023-05-12T02:16:37.546Z,0.00
2023-05-12T02:17:37.410Z,0.00
2023-05-12T02:18:37.457Z,0.00
2023-05-12T02:19:38.158Z,0.00
2023-05-12T02:20:38.083Z,0.00
2023-05-12T02:21:37.447Z,0.00
2023-05-12T02:22:38.173Z,0.00
2023-05-12T02:23:37.313Z,0.00
2023-05-12T02:24:37.309Z,0.00
2023-05-12T02:25:37.451Z,0.00
2023-05-12T02:26:37.276Z,0.00
2023-05-12T02:27:37.363Z,0.00
2023-05-12T02:28:37.278Z,0.00
2023-05-12T02:29:37.370Z,0.00
2023-05-12T02:30:38.107Z,0.00
2023-05-12T02:31:37.261Z,0.00
2023-05-12T02:32:37.466Z,0.00
2023-05-12T02:33:37.415Z,0.00
2023-05-12T02:34:37.900Z,0.00
2023-05-12T02:35:37.254Z,0.00
2023-05-12T02:36:37.236Z,0.00
2023-05-12T02:37:37.991Z,0.00
2023-05-12T02:38:37.323Z,0.00
2023-05-12T02:39:37.344Z,0.00
2023-05-12T02:40:37.209Z,0.00
2023-05-12T02:41:37.285Z,0.00
2023-05-12T02:42:37.177Z,0.00
2023-05-12T02:43:37.185Z,0.00
2023-05-12T02:44:37.168Z,0.00
2023-05-12T02:45:37.227Z,0.00
2023-05-12T02:46:37.081Z,0.00
2023-05-12T02:47:37.146Z,0.00
2023-05-12T02:48:37.029Z,0.00
2023-05-12T02:49:37.048Z,0.00
2023-05-12T02:50:37.018Z,1.00
2023-05-12T02:51:37.031Z,0.00
2023-05-12T02:52:37.061Z,0.00
2023-05-12T02:53:36.909Z,1.00
2023-05-12T02:54:36.898Z,1.00
2023-05-12T02:55:36.891Z,1.00
2023-05-12T02:56:36.867Z,1.00
2023-05-12T02:57:36.952Z,0.00
2023-05-12T02:58:36.908Z,0.00
2023-05-12T02:59:36.852Z,2.00
2023-05-12T03:00:36.837Z,2.00
2023-05-12T03:01:36.914Z,1.00
2023-05-12T03:02:36.904Z,1.00
2023-05-12T03:03:36.989Z,0.00
2023-05-12T03:04:36.798Z,2.00
2023-05-12T03:05:36.769Z,1.00
2023-05-12T03:06:36.786Z,2.00
2023-05-12T03:07:36.754Z,1.00
2023-05-12T03:08:36.754Z,2.00
2023-05-12T03:09:36.741Z,4.00
2023-05-12T03:10:36.767Z,1.00
2023-05-12T03:11:36.748Z,4.00
2023-05-12T03:12:36.700Z,5.00
2023-05-12T03:13:36.704Z,5.00
2023-05-12T03:14:36.704Z,4.00
2023-05-12T03:15:36.695Z,5.00
2023-05-12T03:16:36.691Z,4.00
2023-05-12T03:17:36.748Z,6.00
2023-05-12T03:18:36.693Z,7.00
2023-05-12T03:19:36.642Z,8.00
2023-05-12T03:20:36.625Z,11.00
2023-05-12T03:21:36.616Z,13.00
2023-05-12T03:22:36.595Z,14.00
2023-05-12T03:23:36.574Z,17.00
2023-05-12T03:24:36.617Z,19.00
2023-05-12T03:25:36.611Z,21.00
2023-05-12T03:26:36.562Z,22.00
2023-05-12T03:27:36.536Z,25.00
2023-05-12T03:28:36.520Z,27.00
2023-05-12T03:29:36.554Z,29.00
2023-05-12T03:30:36.524Z,31.00
2023-05-12T03:31:36.540Z,33.00
2023-05-12T03:32:36.592Z,44.00
2023-05-12T03:33:36.501Z,49.00
2023-05-12T03:34:36.483Z,56.00
2023-05-12T03:35:36.463Z,69.00
2023-05-12T03:36:36.424Z,77.00
2023-05-12T03:37:36.420Z,83.00
2023-05-12T03:38:36.492Z,93.00
2023-05-12T03:39:36.449Z,94.00
2023-05-12T03:40:36.413Z,108.00
2023-05-12T03:41:36.395Z,120.00
2023-05-12T03:42:36.382Z,127.00
2023-05-12T03:43:36.400Z,140.00
2023-05-12T03:44:36.396Z,144.00
2023-05-12T03:45:36.376Z,150.00
2023-05-12T03:46:36.388Z,163.00
2023-05-12T03:47:36.489Z,177.00
2023-05-12T03:48:36.357Z,191.00
2023-05-12T03:49:36.303Z,199.00
2023-05-12T03:50:36.341Z,210.00
2023-05-12T03:51:36.284Z,225.00
2023-05-12T03:52:36.324Z,244.00
2023-05-12T03:53:36.300Z,258.00
2023-05-12T03:54:37.817Z,269.00
2023-05-12T03:55:36.245Z,285.00
2023-05-12T03:56:36.254Z,305.00
2023-05-12T03:57:36.287Z,326.00
2023-05-12T03:58:36.210Z,324.00
2023-05-12T03:59:36.231Z,337.00
2023-05-12T04:00:36.196Z,342.00
2023-05-12T04:01:36.248Z,361.00
2023-05-12T04:02:36.471Z,372.00
2023-05-12T04:03:36.206Z,381.00
2023-05-12T04:04:36.151Z,392.00
2023-05-12T04:05:36.126Z,407.00
2023-05-12T04:06:36.171Z,428.00
2023-05-12T04:07:36.124Z,437.00
2023-05-12T04:08:36.139Z,450.00
2023-05-12T04:09:36.100Z,462.00
2023-05-12T04:10:36.089Z,493.00
2023-05-12T04:11:36.128Z,514.00
2023-05-12T04:12:36.076Z,492.00
2023-05-12T04:13:36.052Z,464.00
2023-05-12T04:14:42.961Z,483.00
2023-05-12T04:15:36.035Z,487.00
2023-05-12T04:16:36.144Z,504.00
2023-05-12T04:17:36.069Z,516.00
2023-05-12T04:18:36.132Z,501.00
2023-05-12T04:19:36.143Z,530.00
2023-05-12T04:20:36.554Z,503.00
2023-05-12T04:21:37.365Z,511.00
2023-05-12T04:22:38.497Z,583.00
2023-05-12T04:23:35.979Z,673.00
2023-05-12T04:24:35.941Z,743.00
2023-05-12T04:25:35.996Z,809.00
2023-05-12T04:26:36.037Z,859.00
2023-05-12T04:27:36.136Z,892.00
2023-05-12T04:28:35.916Z,905.00
2023-05-12T04:29:35.952Z,945.00
2023-05-12T04:30:35.929Z,960.00
2023-05-12T04:31:35.928Z,993.00
2023-05-12T04:32:35.883Z,1023.00
2023-05-12T04:33:35.844Z,1030.00
2023-05-12T04:34:35.870Z,987.00
2023-05-12T04:35:35.853Z,941.00
2023-05-12T04:36:35.806Z,891.00
2023-05-12T04:37:35.799Z,870.00
2023-05-12T04:38:35.789Z,854.00
2023-05-12T04:39:36.503Z,848.00
2023-05-12T04:40:35.797Z,798.00
2023-05-12T04:41:35.765Z,830.00
2023-05-12T04:42:35.744Z,820.00
2023-05-12T04:44:35.769Z,921.00
2023-05-12T04:45:35.725Z,997.00
2023-05-12T04:46:35.850Z,1067.00
2023-05-12T04:47:35.753Z,1132.00
2023-05-12T04:48:35.706Z,1218.00
2023-05-12T04:49:35.714Z,1254.00
2023-05-12T04:50:35.684Z,1311.00
2023-05-12T04:51:35.660Z,1313.00
2023-05-12T04:52:35.657Z,1369.00
2023-05-12T04:53:35.660Z,1419.00
2023-05-12T04:54:35.646Z,1462.00
2023-05-12T04:55:42.601Z,1459.00
2023-05-12T04:56:35.614Z,1442.00
2023-05-12T04:57:35.601Z,1428.00
2023-05-12T04:58:35.607Z,1350.00
2023-05-12T04:59:35.604Z,1329.00
2023-05-12T05:00:35.581Z,1358.00
2023-05-12T05:01:35.702Z,1418.00
2023-05-12T05:02:35.723Z,1457.00
2023-05-12T05:03:35.677Z,1610.00
2023-05-12T05:04:35.577Z,1711.00
2023-05-12T05:05:35.507Z,1757.00
2023-05-12T05:06:35.500Z,1828.00
2023-05-12T05:07:35.513Z,1886.00
2023-05-12T05:08:35.536Z,1971.00
2023-05-12T05:09:36.597Z,1928.00
2023-05-12T05:10:35.469Z,1962.00
2023-05-12T05:11:35.469Z,1948.00
2023-05-12T05:12:35.452Z,1921.00
2023-05-12T05:13:35.430Z,1891.00
2023-05-12T05:14:35.406Z,1934.00
2023-05-12T05:15:35.422Z,1957.00
2023-05-12T05:16:35.424Z,2026.00
2023-05-12T05:17:35.540Z,2013.00
2023-05-12T05:18:35.409Z,2136.00
2023-05-12T05:19:49.854Z,2193.00
2023-05-12T05:20:35.407Z,2199.00
2023-05-12T05:21:35.357Z,2212.00
2023-05-12T05:22:35.319Z,2268.00
2023-05-12T05:23:35.322Z,2269.00
2023-05-12T05:24:35.304Z,2265.00
2023-05-12T05:25:35.291Z,2262.00
2023-05-12T05:26:35.421Z,2242.00
2023-05-12T05:27:35.326Z,2212.00
2023-05-12T05:28:35.275Z,2237.00
2023-05-12T05:29:35.251Z,2217.00
2023-05-12T05:30:35.286Z,2103.00
2023-05-12T05:31:35.263Z,2052.00
2023-05-12T05:32:35.304Z,2060.00
2023-05-12T05:33:35.210Z,2075.00
2023-05-12T05:34:35.285Z,2104.00
2023-05-12T05:35:35.229Z,2206.00
2023-05-12T05:36:35.195Z,2212.00
2023-05-12T05:37:35.167Z,2259.00
2023-05-12T05:38:36.856Z,2260.00
2023-05-12T05:39:35.130Z,2185.00
2023-05-12T05:40:48.802Z,2192.00
2023-05-12T05:41:35.322Z,2158.00
2023-05-12T05:42:35.111Z,2139.00
2023-05-12T05:43:35.101Z,2136.00
2023-05-12T05:44:35.095Z,2253.00
2023-05-12T05:45:35.120Z,2365.00
2023-05-12T05:46:35.091Z,2443.00
2023-05-12T05:47:35.064Z,2406.00
2023-05-12T05:48:35.041Z,2560.00
2023-05-12T05:49:35.054Z,2654.00
2023-05-12T05:50:35.047Z,2697.00
2023-05-12T05:51:35.026Z,2651.00
2023-05-12T05:52:35.005Z,2596.00
2023-05-12T05:53:34.984Z,2745.00
2023-05-12T05:54:35.023Z,3003.00
2023-05-12T05:55:34.964Z,3114.00
2023-05-12T05:56:34.967Z,3088.00
2023-05-12T05:57:34.959Z,3237.00
2023-05-12T05:58:34.936Z,3346.00
2023-05-12T05:59:34.994Z,3340.00
2023-05-12T06:00:34.910Z,3106.00
2023-05-12T06:01:34.906Z,3041.00
2023-05-12T06:02:35.140Z,3014.00
2023-05-12T06:03:35.053Z,3205.00
2023-05-12T06:04:34.910Z,3420.00
2023-05-12T06:05:34.850Z,3564.00
2023-05-12T06:06:34.844Z,3672.00
2023-05-12T06:07:34.858Z,3775.00
2023-05-12T06:08:34.865Z,3566.00
2023-05-12T06:09:34.818Z,3536.00
2023-05-12T06:10:34.832Z,3446.00
2023-05-12T06:11:34.791Z,3461.00
2023-05-12T06:12:34.785Z,3800.00
2023-05-12T06:13:34.768Z,3987.00
2023-05-12T06:14:34.766Z,4172.00
2023-05-12T06:15:34.776Z,4210.00
2023-05-12T06:16:34.780Z,4272.00
2023-05-12T06:17:34.800Z,4571.00
2023-05-12T06:18:34.756Z,4453.00
2023-05-12T06:19:34.724Z,4430.00
2023-05-12T06:20:34.749Z,4478.00
2023-05-12T06:21:34.688Z,4335.00
2023-05-12T06:22:34.759Z,4273.00
2023-05-12T06:23:34.690Z,4724.00
2023-05-12T06:24:34.660Z,5312.00
2023-05-12T06:25:34.650Z,5800.00
2023-05-12T06:26:34.634Z,5812.00
2023-05-12T06:27:34.657Z,5462.00
2023-05-12T06:28:34.602Z,5018.00
2023-05-12T06:29:34.622Z,5027.00
2023-05-12T06:30:34.591Z,5264.00
2023-05-12T06:31:34.637Z,5645.00
2023-05-12T06:32:34.743Z,5904.00
2023-05-12T06:33:34.564Z,6098.00
2023-05-12T06:34:34.559Z,5881.00
2023-05-12T06:35:34.533Z,5921.00
2023-05-12T06:36:34.585Z,6149.00
2023-05-12T06:37:34.544Z,6287.00
2023-05-12T06:38:34.510Z,6370.00
2023-05-12T06:39:34.483Z,6492.00
2023-05-12T06:40:34.498Z,6440.00
2023-05-12T06:41:34.524Z,6458.00
2023-05-12T06:42:34.472Z,6608.00
2023-05-12T06:43:34.457Z,6624.00
2023-05-12T06:44:34.451Z,6768.00
2023-05-12T06:45:34.432Z,6854.00
2023-05-12T06:46:34.502Z,6840.00
2023-05-12T06:47:34.423Z,7083.00
2023-05-12T06:48:34.423Z,7073.00
2023-05-12T06:49:34.392Z,7142.00
2023-05-12T06:50:34.407Z,7255.00
2023-05-12T06:51:34.402Z,7444.00
2023-05-12T06:52:34.367Z,7684.00
2023-05-12T06:53:34.347Z,7932.00
2023-05-12T06:54:34.336Z,8133.00
2023-05-12T06:55:34.398Z,8482.00
2023-05-12T06:56:34.339Z,8615.00
2023-05-12T06:57:34.304Z,8446.00
2023-05-12T06:58:34.312Z,8164.00
2023-05-12T06:59:34.340Z,8058.00
2023-05-12T07:00:34.326Z,8843.00
2023-05-12T07:01:34.309Z,9898.00
2023-05-12T07:02:34.257Z,10146.00
2023-05-12T07:03:34.303Z,10345.00
2023-05-12T07:04:34.252Z,10283.00
2023-05-12T07:05:34.272Z,9680.00
2023-05-12T07:06:34.204Z,8590.00
2023-05-12T07:07:34.196Z,11283.00
2023-05-12T07:08:34.193Z,10699.00
2023-05-12T07:09:34.234Z,10914.00
2023-05-12T07:10:34.167Z,11321.00
2023-05-12T07:11:34.155Z,11043.00
2023-05-12T07:12:34.143Z,10944.00
2023-05-12T07:13:34.128Z,10775.00
2023-05-12T07:14:34.151Z,12365.00
2023-05-12T07:15:34.135Z,11852.00
2023-05-12T07:16:34.191Z,11985.00
2023-05-12T07:17:34.153Z,14370.00
2023-05-12T07:18:34.142Z,15791.00
2023-05-12T07:19:34.154Z,13677.00
2023-05-12T07:20:34.069Z,16002.00
2023-05-12T07:21:34.054Z,17487.00
2023-05-12T07:22:34.365Z,16902.00
2023-05-12T07:23:34.046Z,15176.00
2023-05-12T07:24:34.018Z,14075.00
2023-05-12T07:25:34.035Z,12712.00
2023-05-12T07:26:33.999Z,17628.00
2023-05-12T07:27:33.978Z,10829.00
2023-05-12T07:28:34.025Z,18055.00
2023-05-12T07:29:33.955Z,25726.00
2023-05-12T07:30:33.955Z,16137.00
2023-05-12T07:31:34.047Z,14319.00
2023-05-12T07:32:33.963Z,14020.00
2023-05-12T07:33:33.942Z,20049.00
2023-05-12T07:34:33.918Z,16220.00
2023-05-12T07:35:33.892Z,19154.00
2023-05-12T07:36:33.881Z,17355.00
2023-05-12T07:37:33.921Z,17384.00
2023-05-12T07:38:33.860Z,18371.00
2023-05-12T07:39:33.880Z,17102.00
2023-05-12T07:40:33.838Z,18323.00
2023-05-12T07:41:34.613Z,19849.00
2023-05-12T07:42:33.857Z,16135.00
2023-05-12T07:43:33.811Z,19296.00
2023-05-12T07:44:33.809Z,12280.00
2023-05-12T07:45:33.794Z,22953.00
2023-05-12T07:46:33.845Z,19639.00
2023-05-12T07:47:33.822Z,17051.00
2023-05-12T07:48:33.761Z,13985.00
2023-05-12T07:49:33.759Z,23281.00
2023-05-12T07:50:33.739Z,21904.00
2023-05-12T07:51:33.761Z,18879.00
2023-05-12T07:52:33.721Z,24274.00
2023-05-12T07:53:33.712Z,18100.00
2023-05-12T07:54:33.696Z,19899.00
2023-05-12T07:55:33.705Z,17177.00
2023-05-12T07:56:33.702Z,17035.00
2023-05-12T07:57:33.671Z,12081.00
2023-05-12T07:58:33.661Z,29081.00
2023-05-12T07:59:33.658Z,15057.00
2023-05-12T08:00:33.664Z,26447.00
2023-05-12T08:01:33.696Z,19388.00
2023-05-12T08:02:33.657Z,18247.00
2023-05-12T08:03:33.695Z,17667.00
2023-05-12T08:04:33.629Z,18174.00
2023-05-12T08:05:33.674Z,19471.00
2023-05-12T08:06:33.579Z,23332.00
2023-05-12T08:07:33.620Z,7157.00
2023-05-12T08:08:33.556Z,67563.00
2023-05-12T08:09:33.543Z,24023.00
2023-05-12T08:10:33.558Z,18361.00
2023-05-12T08:11:33.544Z,33661.00
2023-05-12T08:12:33.521Z,22646.00
2023-05-12T08:13:33.541Z,25518.00
2023-05-12T08:14:33.542Z,13797.00
2023-05-12T08:15:33.549Z,29278.00
2023-05-12T08:16:33.505Z,26994.00
2023-05-12T08:17:33.475Z,18349.00
2023-05-12T08:18:33.477Z,21102.00
2023-05-12T08:19:33.495Z,23667.00
2023-05-12T08:20:33.448Z,18580.00
2023-05-12T08:21:33.432Z,26696.00
2023-05-12T08:22:33.449Z,8818.00
2023-05-12T08:23:33.448Z,37228.00
2023-05-12T08:24:33.429Z,23697.00
2023-05-12T08:25:33.400Z,28259.00
2023-05-12T08:26:33.392Z,18687.00
2023-05-12T08:27:33.350Z,9266.00
2023-05-12T08:28:33.366Z,33342.00
2023-05-12T08:29:33.370Z,34166.00
2023-05-12T08:30:33.400Z,11186.00
2023-05-12T08:31:33.443Z,68542.00
2023-05-12T08:32:33.625Z,10159.00
2023-05-12T08:33:33.348Z,72014.00
2023-05-12T08:34:33.296Z,32073.00
2023-05-12T08:35:33.277Z,71765.00
2023-05-12T08:36:33.278Z,28208.00
2023-05-12T08:37:34.803Z,76234.00
2023-05-12T08:38:33.292Z,78621.00
2023-05-12T08:39:33.243Z,79445.00
2023-05-12T08:40:33.214Z,75121.00
2023-05-12T08:41:33.216Z,75576.00
2023-05-12T08:42:33.247Z,70234.00
2023-05-12T08:43:33.258Z,33105.00
2023-05-12T08:44:33.182Z,17639.00
2023-05-12T08:45:33.184Z,69965.00
2023-05-12T08:46:33.269Z,11611.00
2023-05-12T08:47:33.217Z,74222.00
2023-05-12T08:48:33.198Z,71917.00
2023-05-12T08:49:33.136Z,32685.00
2023-05-12T08:50:33.177Z,24999.00
2023-05-12T08:51:33.126Z,71031.00
2023-05-12T08:52:33.738Z,11686.00
2023-05-12T08:53:33.095Z,68844.00
2023-05-12T08:54:33.472Z,26916.00
2023-05-12T08:55:34.358Z,32928.00
2023-05-12T08:57:33.101Z,72589.00
2023-05-12T08:58:40.830Z,32060.00
2023-05-12T08:59:33.069Z,70372.00
2023-05-12T09:00:33.080Z,32032.00
2023-05-12T09:01:33.711Z,27477.00
2023-05-12T09:02:44.562Z,24263.00
2023-05-12T09:03:33.060Z,34315.00
2023-05-12T09:04:33.012Z,37402.00
2023-05-12T09:05:32.974Z,35347.00
2023-05-12T09:06:33.022Z,19552.00
2023-05-12T09:07:32.994Z,72771.00
2023-05-12T09:08:32.941Z,27252.00
2023-05-12T09:09:32.939Z,74890.00
2023-05-12T09:10:35.468Z,72035.00
2023-05-12T09:11:32.912Z,32117.00
2023-05-12T09:12:34.626Z,37022.00
2023-05-12T09:13:32.923Z,31170.00
2023-05-12T09:14:32.878Z,75756.00
2023-05-12T09:15:32.911Z,76605.00
2023-05-12T09:16:33.007Z,77956.00
2023-05-12T09:17:32.876Z,76033.00
2023-05-12T09:18:32.870Z,74449.00
2023-05-12T09:19:32.841Z,71387.00
2023-05-12T09:20:33.064Z,32586.00
2023-05-12T09:21:32.812Z,29630.00
2023-05-12T09:22:32.813Z,27579.00
2023-05-12T09:23:32.814Z,24962.00
2023-05-12T09:24:32.820Z,35838.00
2023-05-12T09:25:32.804Z,20569.00
2023-05-12T09:26:32.778Z,80590.00
2023-05-12T09:27:32.759Z,75711.00
2023-05-12T09:28:32.763Z,75990.00
2023-05-12T09:29:35.882Z,76004.00
2023-05-12T09:30:32.739Z,78491.00
2023-05-12T09:31:32.798Z,78328.00
2023-05-12T09:32:32.761Z,75475.00
2023-05-12T09:33:32.712Z,75694.00
2023-05-12T09:34:32.722Z,75556.00
2023-05-12T09:35:32.708Z,77078.00
2023-05-12T09:36:32.677Z,76814.00
2023-05-12T09:37:32.682Z,75588.00
2023-05-12T09:38:32.696Z,75541.00
2023-05-12T09:39:32.691Z,75817.00
2023-05-12T09:40:32.653Z,75668.00
2023-05-12T09:41:32.969Z,76397.00
2023-05-12T09:42:32.638Z,75704.00
2023-05-12T09:43:32.633Z,75505.00
2023-05-12T09:44:32.602Z,75822.00
2023-05-12T09:45:32.631Z,75746.00
2023-05-12T09:46:32.820Z,75739.00
2023-05-12T09:47:32.601Z,75636.00
2023-05-12T09:48:32.597Z,76273.00
2023-05-12T09:49:32.568Z,77894.00
2023-05-12T09:50:40.932Z,75231.00
2023-05-12T09:51:32.553Z,75822.00
2023-05-12T09:52:32.538Z,76072.00
2023-05-12T09:53:32.569Z,75790.00
2023-05-12T09:54:32.517Z,75613.00
2023-05-12T09:55:32.513Z,75565.00
2023-05-12T09:56:32.523Z,75571.00
2023-05-12T09:57:32.521Z,76025.00
2023-05-12T09:58:32.502Z,75904.00
2023-05-12T09:59:32.493Z,75510.00
2023-05-12T10:00:46.158Z,75464.00
2023-05-12T10:01:32.466Z,76384.00
2023-05-12T10:02:32.557Z,76011.00
2023-05-12T10:03:32.426Z,75790.00
2023-05-12T10:04:32.536Z,75335.00
2023-05-12T10:05:32.421Z,75357.00
2023-05-12T10:06:32.404Z,75683.00
2023-05-12T10:07:32.419Z,75700.00
2023-05-12T10:08:32.394Z,75669.00
2023-05-12T10:09:32.390Z,75514.00
2023-05-12T10:10:32.373Z,75416.00
2023-05-12T10:11:32.395Z,75646.00
2023-05-12T10:12:32.371Z,76900.00
2023-05-12T10:13:32.350Z,75816.00
2023-05-12T10:14:32.339Z,75406.00
2023-05-12T10:15:32.351Z,75344.00
2023-05-12T10:16:32.409Z,75585.00
2023-05-12T10:17:32.336Z,77370.00
2023-05-12T10:18:32.332Z,78766.00
2023-05-12T10:19:32.288Z,76615.00
2023-05-12T10:20:32.300Z,75665.00
2023-05-12T10:21:32.366Z,75594.00
2023-05-12T10:22:32.262Z,75666.00
2023-05-12T10:23:32.284Z,76201.00
2023-05-12T10:24:32.238Z,75631.00
2023-05-12T10:25:32.269Z,75421.00
2023-05-12T10:26:32.306Z,75260.00
2023-05-12T10:27:32.227Z,76769.00
2023-05-12T10:28:32.203Z,75907.00
2023-05-12T10:29:32.216Z,76367.00
2023-05-12T10:30:32.228Z,78450.00
2023-05-12T10:31:32.208Z,77691.00
2023-05-12T10:32:32.233Z,75555.00
2023-05-12T10:33:32.238Z,75462.00
2023-05-12T10:34:32.205Z,78032.00
2023-05-12T10:35:32.174Z,78796.00
2023-05-12T10:36:32.160Z,80068.00
2023-05-12T10:37:32.183Z,78673.00
2023-05-12T10:38:32.113Z,75777.00
2023-05-12T10:39:32.160Z,75594.00
2023-05-12T10:40:32.112Z,75682.00
2023-05-12T10:41:32.095Z,75781.00
2023-05-12T10:42:32.086Z,76696.00
2023-05-12T10:43:32.082Z,77571.00
2023-05-12T10:44:32.105Z,75601.00
2023-05-12T10:45:32.058Z,75748.00
2023-05-12T10:46:32.138Z,76448.00
2023-05-12T10:47:32.720Z,75615.00
2023-05-12T10:48:32.155Z,75693.00
2023-05-12T10:49:32.180Z,75678.00
2023-05-12T10:50:32.026Z,75742.00
2023-05-12T10:51:32.008Z,75853.00
2023-05-12T10:52:31.992Z,75748.00
2023-05-12T10:53:45.239Z,76015.00
2023-05-12T10:54:31.977Z,77557.00
2023-05-12T10:55:32.242Z,76181.00
2023-05-12T10:56:32.223Z,75752.00
2023-05-12T10:57:32.420Z,75675.00
2023-05-12T10:58:32.283Z,75530.00
2023-05-12T10:59:32.304Z,75819.00
2023-05-12T11:00:32.217Z,75639.00
2023-05-12T11:01:32.430Z,76971.00
2023-05-12T11:02:32.756Z,75350.00
2023-05-12T11:03:32.231Z,75391.00
2023-05-12T11:04:32.009Z,75802.00
2023-05-12T11:05:32.143Z,75799.00
2023-05-12T11:06:32.665Z,75765.00
2023-05-12T11:07:32.947Z,75687.00
2023-05-12T11:08:32.493Z,75760.00
2023-05-12T11:09:31.910Z,79826.00
2023-05-12T11:10:33.335Z,81863.00
2023-05-12T11:11:32.348Z,78087.00
2023-05-12T11:12:31.869Z,75678.00
2023-05-12T11:13:31.800Z,75389.00
2023-05-12T11:14:31.801Z,75239.00
2023-05-12T11:15:31.792Z,76291.00
2023-05-12T11:16:31.887Z,76612.00
2023-05-12T11:17:32.104Z,75700.00
2023-05-12T11:18:31.834Z,75517.00
2023-05-12T11:19:31.766Z,77004.00
2023-05-12T11:20:31.750Z,77351.00
2023-05-12T11:21:31.756Z,79407.00
2023-05-12T11:22:31.719Z,78915.00
2023-05-12T11:23:31.716Z,76519.00
2023-05-12T11:24:31.717Z,76312.00
2023-05-12T11:25:31.722Z,78462.00
2023-05-12T11:26:31.733Z,78650.00
2023-05-12T11:27:31.817Z,77617.00
2023-05-12T11:28:31.670Z,75820.00
2023-05-12T11:29:31.688Z,75724.00
2023-05-12T11:30:31.714Z,76663.00
2023-05-12T11:31:31.777Z,76994.00
2023-05-12T11:32:31.712Z,75360.00
2023-05-12T11:33:31.631Z,75865.00
2023-05-12T11:34:31.622Z,75751.00
2023-05-12T11:35:31.657Z,67389.00
2023-05-12T11:36:31.610Z,10100.00
2023-05-12T11:37:31.582Z,75921.00
2023-05-12T11:38:31.589Z,75174.00
2023-05-12T11:39:31.636Z,68182.00
2023-05-12T11:40:31.611Z,25614.00
2023-05-12T11:41:31.580Z,78259.00
2023-05-12T11:42:31.563Z,76854.00
2023-05-12T11:43:31.552Z,77126.00
2023-05-12T11:44:31.566Z,76170.00
2023-05-12T11:45:31.549Z,76417.00
2023-05-12T11:46:37.726Z,79545.00
2023-05-12T11:47:31.737Z,78935.00
2023-05-12T11:48:31.691Z,79471.00
2023-05-12T11:49:31.559Z,81019.00
2023-05-12T11:50:31.532Z,81696.00
2023-05-12T11:51:31.491Z,80121.00
2023-05-12T11:52:31.475Z,77203.00
2023-05-12T11:53:31.499Z,75311.00
2023-05-12T11:54:31.532Z,75334.00
2023-05-12T11:55:31.458Z,75358.00
2023-05-12T11:56:31.511Z,80205.00
2023-05-12T11:57:31.753Z,80175.00
2023-05-12T11:58:31.675Z,79980.00
2023-05-12T11:59:31.500Z,82475.00
2023-05-12T12:00:31.480Z,82780.00
2023-05-12T12:01:31.417Z,77981.00
2023-05-12T12:02:31.519Z,59413.00
2023-05-12T12:03:31.518Z,9709.00
2023-05-12T12:04:31.470Z,10490.00
2023-05-12T12:05:31.433Z,7221.00
2023-05-12T12:06:31.350Z,6661.00
2023-05-12T12:07:31.377Z,8360.00
2023-05-12T12:08:31.381Z,9160.00
2023-05-12T12:09:31.320Z,7158.00
2023-05-12T12:10:31.365Z,6209.00
2023-05-12T12:11:31.310Z,5924.00
2023-05-12T12:12:31.309Z,6955.00
2023-05-12T12:13:31.494Z,7335.00
2023-05-12T12:14:31.718Z,7465.00
2023-05-12T12:15:31.283Z,7579.00
2023-05-12T12:16:31.536Z,7623.00
2023-05-12T12:17:31.417Z,7668.00
2023-05-12T12:18:31.276Z,7545.00
2023-05-12T12:19:31.234Z,6623.00
2023-05-12T12:20:31.228Z,7163.00